Time;durP1;ratioP1;P1;durP2;ratioP2;P2;SDS_P1;SDS_P2;PMS_P1;PMS_P2;Temp;Humidity;BMP_temperature;BMP_pressure;BME280_temperature;BME280_humidity;BME280_pressure;Samples;Min_cycle;Max_cycle;Signal;HPM_P1;HPM_P2
2022/10/03 00:02:12;;;;;;;22.17;4.78;;;;;;;;;;5010111;28;20056;-71
2022/10/03 00:04:45;;;;;;;22.00;4.10;;;;;;;;;;5010002;28;20049;-71
2022/10/03 00:07:21;;;;;;;23.80;4.25;;;;;;;;;;5010208;28;20060;-70
2022/10/03 00:09:59;;;;;;;24.90;4.85;;;;;;;;;;5009776;28;20065;-71
2022/10/03 00:12:39;;;;;;;22.33;4.10;;;;;;;;;;5009715;28;20046;-70
2022/10/03 00:15:12;;;;;;;22.20;4.43;;;;;;;;;;5010060;28;20084;-71
2022/10/03 00:17:39;;;;;;;23.67;3.88;;;;;;;;;;5009092;28;20112;-70
2022/10/03 00:20:08;;;;;;;23.88;4.53;;;;;;;;;;5010045;28;20041;-71
2022/10/03 00:22:46;;;;;;;21.80;4.50;;;;;;;;;;5009856;28;20101;-70
2022/10/03 00:25:28;;;;;;;22.25;4.50;;;;;;;;;;5009901;28;20129;-70
2022/10/03 00:28:00;;;;;;;22.15;4.13;;;;;;;;;;5009969;28;20053;-71
2022/10/03 00:30:27;;;;;;;22.33;4.30;;;;;;;;;;5009568;28;20054;-71
2022/10/03 00:32:53;;;;;;;20.38;4.28;;;;;;;;;;5009746;28;20056;-70
2022/10/03 00:35:34;;;;;;;18.88;3.80;;;;;;;;;;5009734;28;20214;-71
2022/10/03 00:38:07;;;;;;;24.40;4.40;;;;;;;;;;5009777;28;20547;-71
2022/10/03 00:40:33;;;;;;;23.10;4.47;;;;;;;;;;5009701;28;20050;-70
2022/10/03 00:43:05;;;;;;;21.15;3.90;;;;;;;;;;5009480;28;20128;-72
2022/10/03 00:45:31;;;;;;;20.35;4.30;;;;;;;;;;4991562;28;20153;-71
2022/10/03 00:47:57;;;;;;;18.05;3.85;;;;;;;;;;5009450;28;20094;-70
2022/10/03 00:50:29;;;;;;;24.63;4.68;;;;;;;;;;5009440;28;20244;-70
2022/10/03 00:52:55;;;;;;;22.25;4.20;;;;;;;;;;5009429;28;20129;-71
2022/10/03 00:55:26;;;;;;;20.95;4.22;;;;;;;;;;5009065;28;20082;-71
2022/10/03 00:58:07;;;;;;;20.65;4.10;;;;;;;;;;5009095;28;20489;-70
2022/10/03 01:00:34;;;;;;;23.95;4.05;;;;;;;;;;5009246;28;20145;-71
2022/10/03 01:03:00;;;;;;;;;;;;;;;;;;5009150;28;20327;-71
2022/10/03 01:05:41;;;;;;;16.98;3.60;;;;;;;;;;4991067;28;20015;-71
2022/10/03 01:08:16;;;;;;;22.73;4.60;;;;;;;;;;5009145;28;20057;-71
2022/10/03 01:11:08;;;;;;;21.33;3.70;;;;;;;;;;5008245;28;20342;-71
2022/10/03 01:13:45;;;;;;;20.60;4.22;;;;;;;;;;5009123;28;20125;-71
2022/10/03 01:16:18;;;;;;;20.92;3.70;;;;;;;;;;5009195;28;20046;-71
2022/10/03 01:18:44;;;;;;;22.77;4.10;;;;;;;;;;5009102;28;20050;-70
2022/10/03 01:21:13;;;;;;;18.23;3.83;;;;;;;;;;4992819;28;20053;-71
2022/10/03 01:23:45;;;;;;;20.48;3.47;;;;;;;;;;5013188;28;20137;-71
2022/10/03 01:26:24;;;;;;;18.25;3.72;;;;;;;;;;5013160;28;20056;-71
2022/10/03 01:32:00;;;;;;;24.77;3.92;;;;;;;;;;5013182;28;20119;-71
2022/10/03 01:34:29;;;;;;;18.50;3.65;;;;;;;;;;5013002;28;20057;-71
2022/10/03 01:37:01;;;;;;;23.02;4.10;;;;;;;;;;5012881;28;20073;-71
2022/10/03 01:39:45;;;;;;;22.42;3.50;;;;;;;;;;5012797;28;20084;-71
2022/10/03 01:42:32;;;;;;;20.75;4.05;;;;;;;;;;5012649;28;20078;-71
2022/10/03 01:45:12;;;;;;;21.13;3.90;;;;;;;;;;5012951;28;20045;-71
2022/10/03 01:47:50;;;;;;;22.20;3.75;;;;;;;;;;5012603;28;20060;-71
2022/10/03 01:50:23;;;;;;;16.45;3.88;;;;;;;;;;4995456;28;20413;-71
2022/10/03 01:52:57;;;;;;;14.32;3.17;;;;;;;;;;5012866;28;20144;-71
2022/10/03 01:55:45;;;;;;;27.67;4.35;;;;;;;;;;5012924;28;20103;-70
2022/10/03 01:58:18;;;;;;;22.20;3.90;;;;;;;;;;5012913;28;20049;-71
2022/10/03 02:00:53;;;;;;;23.17;4.07;;;;;;;;;;5012573;28;20057;-72
2022/10/03 02:03:42;;;;;;;21.42;4.00;;;;;;;;;;5012857;28;20054;-72
2022/10/03 02:06:14;;;;;;;20.60;3.83;;;;;;;;;;5011748;28;20545;-71
2022/10/03 02:08:40;;;;;;;25.15;3.92;;;;;;;;;;5012739;28;20058;-71
2022/10/03 02:11:07;;;;;;;19.27;3.38;;;;;;;;;;5012378;28;20103;-71
2022/10/03 02:13:36;;;;;;;20.48;3.42;;;;;;;;;;5012337;28;20049;-70
2022/10/03 02:16:06;;;;;;;17.40;3.33;;;;;;;;;;5011803;28;20058;-70
2022/10/03 02:18:54;;;;;;;19.50;4.43;;;;;;;;;;5012166;28;20404;-71
2022/10/03 02:21:25;;;;;;;19.13;3.92;;;;;;;;;;5012298;28;20111;-71
2022/10/03 02:24:21;;;;;;;20.55;3.78;;;;;;;;;;5012290;28;20058;-71
2022/10/03 02:27:06;;;;;;;18.15;3.88;;;;;;;;;;4994959;28;20422;-71
2022/10/03 02:29:44;;;;;;;18.33;3.40;;;;;;;;;;5012074;28;20061;-70
2022/10/03 02:32:29;;;;;;;23.58;3.58;;;;;;;;;;5011956;28;20053;-70
2022/10/03 02:35:14;;;;;;;17.60;3.90;;;;;;;;;;5012028;28;20041;-70
2022/10/03 02:37:59;;;;;;;21.40;4.07;;;;;;;;;;5011919;28;20350;-71
2022/10/03 02:40:46;;;;;;;22.15;3.72;;;;;;;;;;5011774;28;20053;-71
2022/10/03 02:43:46;;;;;;;21.35;3.50;;;;;;;;;;4993949;28;20149;-71
2022/10/03 02:46:31;;;;;;;23.13;4.07;;;;;;;;;;5011539;28;20342;-71
2022/10/03 02:49:10;;;;;;;22.30;3.53;;;;;;;;;;5011265;28;20473;-71
2022/10/03 02:51:49;;;;;;;17.77;3.60;;;;;;;;;;5011651;28;20362;-70
2022/10/03 02:54:22;;;;;;;16.95;3.47;;;;;;;;;;4993935;28;20115;-71
2022/10/03 02:56:58;;;;;;;21.50;3.83;;;;;;;;;;5011546;28;20116;-70
2022/10/03 02:59:36;;;;;;;22.13;4.25;;;;;;;;;;5011474;28;20126;-71
2022/10/03 03:02:11;;;;;;;17.45;3.53;;;;;;;;;;5011499;28;20090;-71
2022/10/03 03:04:43;;;;;;;18.73;3.40;;;;;;;;;;5011369;28;20167;-71
2022/10/03 03:07:09;;;;;;;21.98;3.70;;;;;;;;;;5011319;28;20086;-71
2022/10/03 03:09:35;;;;;;;24.92;4.05;;;;;;;;;;5011193;28;20453;-71
2022/10/03 03:12:02;;;;;;;23.38;3.70;;;;;;;;;;5010956;28;20482;-72
2022/10/03 03:14:28;;;;;;;20.85;3.95;;;;;;;;;;5010812;28;20072;-70
2022/10/03 03:17:07;;;;;;;19.58;3.35;;;;;;;;;;5011071;28;20100;-72
2022/10/03 03:19:42;;;;;;;18.63;3.92;;;;;;;;;;5010892;28;20054;-69
2022/10/03 03:22:11;;;;;;;19.25;3.63;;;;;;;;;;5011165;28;20473;-71
2022/10/03 03:24:37;;;;;;;21.00;4.05;;;;;;;;;;5010732;28;20049;-72
2022/10/03 03:27:20;;;;;;;18.00;3.70;;;;;;;;;;5011012;28;20061;-70
2022/10/03 03:29:47;;;;;;;24.60;3.55;;;;;;;;;;5010667;28;20052;-71
2022/10/03 03:32:18;;;;;;;17.80;3.88;;;;;;;;;;5010624;28;20118;-72
2022/10/03 03:34:58;;;;;;;18.70;3.38;;;;;;;;;;5010593;28;20138;-71
2022/10/03 03:37:51;;;;;;;18.88;3.60;;;;;;;;;;5010589;28;20117;-71
2022/10/03 03:40:43;;;;;;;22.38;4.28;;;;;;;;;;4980813;28;20076;-70
2022/10/03 03:43:24;;;;;;;19.10;4.07;;;;;;;;;;5010005;28;20389;-71
2022/10/03 03:45:50;;;;;;;17.02;3.45;;;;;;;;;;5010354;28;20073;-71
2022/10/03 03:48:21;;;;;;;16.65;3.67;;;;;;;;;;5010536;28;20042;-71
2022/10/03 03:50:51;;;;;;;18.45;3.80;;;;;;;;;;5010398;28;20054;-71
2022/10/03 03:53:27;;;;;;;21.02;4.20;;;;;;;;;;5010322;28;20107;-71
2022/10/03 03:56:09;;;;;;;16.58;3.80;;;;;;;;;;4992608;28;20169;-71
2022/10/03 03:58:58;;;;;;;17.00;3.67;;;;;;;;;;5010284;28;20065;-72
2022/10/03 04:01:27;;;;;;;19.17;3.70;;;;;;;;;;4999886;28;20148;-72
2022/10/03 04:03:53;;;;;;;23.83;4.10;;;;;;;;;;5010411;28;20076;-71
2022/10/03 04:06:35;;;;;;;22.75;3.72;;;;;;;;;;5010336;28;20065;-70
2022/10/03 04:09:28;;;;;;;18.45;3.85;;;;;;;;;;5010253;28;20069;-73
2022/10/03 04:12:07;;;;;;;19.88;3.78;;;;;;;;;;5010226;28;20133;-71
2022/10/03 04:14:40;;;;;;;18.92;4.00;;;;;;;;;;5010035;28;20061;-71
2022/10/03 04:20:03;;;;;;;21.33;3.65;;;;;;;;;;5010220;28;20088;-72
2022/10/03 04:22:30;;;;;;;16.35;3.65;;;;;;;;;;5010184;28;20060;-72
2022/10/03 04:24:56;;;;;;;18.35;3.83;;;;;;;;;;5009938;28;20409;-71
2022/10/03 04:27:38;;;;;;;18.50;3.78;;;;;;;;;;5010095;28;20050;-72
2022/10/03 04:30:07;;;;;;;14.10;3.42;;;;;;;;;;5009617;28;20320;-72
2022/10/03 04:32:42;;;;;;;21.98;3.88;;;;;;;;;;5009919;28;20128;-72
2022/10/03 04:35:14;;;;;;;25.50;4.05;;;;;;;;;;5009881;28;20048;-72
2022/10/03 04:37:46;;;;;;;22.50;4.30;;;;;;;;;;5009699;28;20041;-73
2022/10/03 04:40:27;;;;;;;18.65;3.83;;;;;;;;;;5009781;28;20145;-72
2022/10/03 04:42:59;;;;;;;19.42;3.80;;;;;;;;;;5009589;28;20132;-72
2022/10/03 04:45:35;;;;;;;17.83;3.78;;;;;;;;;;5009787;28;20132;-72
2022/10/03 04:48:16;;;;;;;20.33;3.80;;;;;;;;;;4975886;28;20060;-71
2022/10/03 04:51:01;;;;;;;20.88;3.83;;;;;;;;;;5009716;28;20054;-70
2022/10/03 04:53:55;;;;;;;19.33;3.97;;;;;;;;;;5009542;28;20073;-72
2022/10/03 04:56:29;;;;;;;20.42;3.90;;;;;;;;;;4979533;28;20068;-72
2022/10/03 04:59:08;;;;;;;18.10;3.70;;;;;;;;;;5009807;28;20129;-72
2022/10/03 05:01:43;;;;;;;16.73;3.75;;;;;;;;;;5009692;28;20057;-72
2022/10/03 05:04:31;;;;;;;18.58;3.90;;;;;;;;;;5009626;28;20045;-72
2022/10/03 05:07:10;;;;;;;24.73;3.97;;;;;;;;;;5009281;28;20042;-72
2022/10/03 05:09:52;;;;;;;19.27;4.50;;;;;;;;;;5009567;28;20046;-72
2022/10/03 05:12:21;;;;;;;18.60;4.45;;;;;;;;;;5009562;28;20489;-72
2022/10/03 05:15:04;;;;;;;18.92;4.18;;;;;;;;;;5009094;28;20422;-72
2022/10/03 05:17:33;;;;;;;20.23;4.30;;;;;;;;;;5009479;28;20393;-73
2022/10/03 05:20:02;;;;;;;16.98;4.85;;;;;;;;;;4991519;28;20050;-72
2022/10/03 05:22:34;;;;;;;19.98;4.55;;;;;;;;;;5009219;28;20053;-72
2022/10/03 05:25:16;;;;;;;16.38;3.47;;;;;;;;;;5008943;28;20042;-72
2022/10/03 05:27:54;;;;;;;16.65;3.53;;;;;;;;;;5009382;28;20064;-72
2022/10/03 05:30:33;;;;;;;16.67;3.83;;;;;;;;;;4991569;28;20054;-73
2022/10/03 05:33:09;;;;;;;15.63;3.65;;;;;;;;;;5009181;28;20126;-72
2022/10/03 05:35:41;;;;;;;19.33;3.92;;;;;;;;;;5008482;28;20076;-70
2022/10/03 05:38:35;;;;;;;19.52;3.95;;;;;;;;;;5008863;28;20334;-73
2022/10/03 05:41:09;;;;;;;19.35;4.40;;;;;;;;;;5009019;28;20065;-72
2022/10/03 05:43:51;;;;;;;17.10;3.55;;;;;;;;;;5009024;28;20434;-73
2022/10/03 05:46:29;;;;;;;21.17;4.03;;;;;;;;;;5009256;28;20114;-73
2022/10/03 05:49:02;;;;;;;16.38;3.80;;;;;;;;;;5008664;28;20046;-72
2022/10/03 05:51:38;;;;;;;18.55;4.13;;;;;;;;;;5008583;28;20129;-73
2022/10/03 05:54:04;;;;;;;17.25;3.53;;;;;;;;;;4990597;28;20049;-73
2022/10/03 05:56:43;;;;;;;21.75;3.88;;;;;;;;;;5009009;28;20046;-73
2022/10/03 05:59:28;;;;;;;18.08;4.15;;;;;;;;;;5008647;28;20046;-72
2022/10/03 06:02:09;;;;;;;18.63;3.50;;;;;;;;;;5008703;28;20144;-71
2022/10/03 06:04:41;;;;;;;18.35;3.80;;;;;;;;;;5008767;28;20049;-72
2022/10/03 06:07:08;;;;;;;19.98;3.97;;;;;;;;;;5009972;28;20378;-73
2022/10/03 06:09:52;;;;;;;18.25;4.20;;;;;;;;;;5011880;28;20508;-73
2022/10/03 06:12:18;;;;;;;19.20;4.13;;;;;;;;;;5012074;28;20053;-73
2022/10/03 06:14:57;;;;;;;15.45;3.88;;;;;;;;;;5011991;28;20053;-73
2022/10/03 06:17:29;;;;;;;17.52;3.75;;;;;;;;;;5012006;28;20056;-73
2022/10/03 06:20:11;;;;;;;17.38;4.20;;;;;;;;;;5011700;28;20115;-70
2022/10/03 06:22:52;;;;;;;17.17;4.28;;;;;;;;;;5012117;28;20069;-72
2022/10/03 06:25:37;;;;;;;16.13;4.07;;;;;;;;;;5011564;28;20135;-72
2022/10/03 06:28:17;;;;;;;20.38;4.43;;;;;;;;;;5012748;28;20612;-72
2022/10/03 06:31:12;;;;;;;18.42;3.90;;;;;;;;;;5011652;28;20159;-72
2022/10/03 06:33:38;;;;;;;19.98;4.20;;;;;;;;;;5011635;28;20520;-73
2022/10/03 06:36:06;;;;;;;18.42;4.57;;;;;;;;;;5011661;28;20133;-72
2022/10/03 06:38:51;;;;;;;16.13;4.32;;;;;;;;;;5011763;28;20342;-73
2022/10/03 06:41:41;;;;;;;20.15;4.47;;;;;;;;;;5011091;28;20539;-72
2022/10/03 06:44:10;;;;;;;18.98;4.45;;;;;;;;;;5011034;28;20046;-72
2022/10/03 06:46:46;;;;;;;19.30;5.72;;;;;;;;;;5010728;28;20108;-72
2022/10/03 06:49:28;;;;;;;22.58;5.25;;;;;;;;;;5011124;28;20130;-72
2022/10/03 06:51:57;;;;;;;17.83;5.22;;;;;;;;;;5011116;28;20122;-72
2022/10/03 06:54:41;;;;;;;17.77;5.13;;;;;;;;;;5011189;28;20049;-72
2022/10/03 06:57:34;;;;;;;18.33;5.07;;;;;;;;;;5011418;28;20081;-72
2022/10/03 07:00:08;;;;;;;18.83;4.88;;;;;;;;;;5011271;28;20076;-71
2022/10/03 07:02:34;;;;;;;18.73;4.78;;;;;;;;;;5011385;28;20053;-72
2022/10/03 07:05:09;;;;;;;15.90;5.22;;;;;;;;;;5010664;28;20449;-72
2022/10/03 07:07:48;;;;;;;20.83;4.60;;;;;;;;;;5010871;28;20082;-72
2022/10/03 07:10:33;;;;;;;15.48;4.22;;;;;;;;;;5010859;28;20050;-72
2022/10/03 07:13:00;;;;;;;21.48;5.15;;;;;;;;;;5010437;28;20064;-72
2022/10/03 07:15:26;;;;;;;20.08;5.50;;;;;;;;;;5010231;28;20516;-72
2022/10/03 07:18:08;;;;;;;25.17;5.20;;;;;;;;;;5010141;28;20056;-72
2022/10/03 07:20:44;;;;;;;15.52;4.55;;;;;;;;;;4993293;28;20164;-73
2022/10/03 07:23:12;;;;;;;20.13;5.00;;;;;;;;;;5010556;28;20115;-72
2022/10/03 07:25:59;;;;;;;20.38;5.35;;;;;;;;;;5010205;28;20100;-73
2022/10/03 07:28:45;;;;;;;23.45;5.30;;;;;;;;;;5010443;28;20090;-72
2022/10/03 07:31:27;;;;;;;21.42;5.65;;;;;;;;;;5010419;28;20061;-72
2022/10/03 07:33:53;;;;;;;21.58;5.90;;;;;;;;;;5010263;28;20508;-72
2022/10/03 07:39:05;;;;;;;19.33;5.28;;;;;;;;;;5010080;28;20072;-72
2022/10/03 07:41:44;;;;;;;18.33;4.05;;;;;;;;;;5010254;28;20057;-71
2022/10/03 07:44:29;;;;;;;20.65;4.18;;;;;;;;;;5010227;28;20135;-71
2022/10/03 07:47:13;;;;;;;19.23;4.35;;;;;;;;;;5010417;28;20064;-71
2022/10/03 07:49:39;;;;;;;18.40;4.68;;;;;;;;;;5010103;28;20057;-70
2022/10/03 07:52:06;;;;;;;20.58;4.10;;;;;;;;;;5010302;28;20481;-72
2022/10/03 07:55:00;;;;;;;17.63;4.15;;;;;;;;;;5010351;28;20049;-71
2022/10/03 07:57:29;;;;;;;22.30;4.03;;;;;;;;;;5009965;28;20366;-71
2022/10/03 08:00:15;;;;;;;18.95;4.05;;;;;;;;;;5009988;28;20141;-71
2022/10/03 08:02:41;;;;;;;19.52;3.95;;;;;;;;;;5010289;28;20045;-71
2022/10/03 08:05:24;;;;;;;20.80;4.47;;;;;;;;;;5009627;28;20468;-70
2022/10/03 08:07:53;;;;;;;19.08;4.00;;;;;;;;;;5010151;28;20061;-72
2022/10/03 08:10:19;;;;;;;16.73;3.47;;;;;;;;;;5009990;28;20100;-71
2022/10/03 08:13:08;;;;;;;19.98;3.92;;;;;;;;;;5010103;28;20049;-72
2022/10/03 08:15:53;;;;;;;17.20;4.00;;;;;;;;;;4999732;28;20101;-70
2022/10/03 08:18:28;;;;;;;18.02;4.22;;;;;;;;;;4992035;28;20050;-71
2022/10/03 08:21:01;;;;;;;17.52;3.40;;;;;;;;;;4992240;28;20050;-72
2022/10/03 08:23:27;;;;;;;16.23;3.67;;;;;;;;;;4992019;28;20132;-71
2022/10/03 08:25:53;;;;;;;15.77;3.80;;;;;;;;;;5009803;28;20092;-71
2022/10/03 08:28:39;;;;;;;20.88;3.90;;;;;;;;;;5010033;28;20045;-70
2022/10/03 08:31:08;;;;;;;23.02;3.30;;;;;;;;;;5009502;28;20437;-70
2022/10/03 08:33:53;;;;;;;17.48;3.25;;;;;;;;;;5009722;28;20427;-72
2022/10/03 08:36:37;;;;;;;18.33;3.05;;;;;;;;;;5009854;28;20045;-70
2022/10/03 08:39:11;;;;;;;18.85;3.70;;;;;;;;;;5009593;28;20187;-72
2022/10/03 08:41:56;;;;;;;17.42;3.38;;;;;;;;;;5009035;28;20124;-71
2022/10/03 08:44:31;;;;;;;19.45;3.67;;;;;;;;;;5009549;28;20065;-70
2022/10/03 08:47:01;;;;;;;17.35;3.22;;;;;;;;;;5009574;28;20438;-70
2022/10/03 08:49:53;;;;;;;18.65;3.80;;;;;;;;;;5009430;28;20069;-68
2022/10/03 08:52:25;;;;;;;20.88;4.43;;;;;;;;;;5009617;28;20046;-70
2022/10/03 08:54:56;;;;;;;20.85;3.17;;;;;;;;;;5009816;28;20151;-70
2022/10/03 08:57:41;;;;;;;17.48;3.00;;;;;;;;;;5009298;28;20066;-69
2022/10/03 09:00:07;;;;;;;16.35;3.63;;;;;;;;;;5009767;28;20056;-70
2022/10/03 09:02:36;;;;;;;15.80;3.30;;;;;;;;;;5009471;28;20206;-69
2022/10/03 09:05:14;;;;;;;15.90;3.13;;;;;;;;;;5009496;28;20065;-70
2022/10/03 09:07:40;;;;;;;19.30;3.50;;;;;;;;;;5008984;28;20105;-68
2022/10/03 09:10:29;;;;;;;17.50;3.28;;;;;;;;;;5009225;28;20134;-69
2022/10/03 09:13:14;;;;;;;17.95;3.47;;;;;;;;;;5009362;28;20046;-69
2022/10/03 09:15:55;;;;;;;17.65;3.33;;;;;;;;;;5008865;28;20057;-69
2022/10/03 09:18:27;;;;;;;15.65;2.80;;;;;;;;;;5009106;28;20472;-67
2022/10/03 09:21:12;;;;;;;13.40;2.80;;;;;;;;;;4991223;28;20046;-71
2022/10/03 09:23:51;;;;;;;15.88;2.90;;;;;;;;;;5008900;28;20099;-70
2022/10/03 09:26:30;;;;;;;16.65;3.28;;;;;;;;;;4991286;28;20046;-72
2022/10/03 09:29:30;;;;;;;14.50;2.80;;;;;;;;;;5009181;28;20064;-70
2022/10/03 09:32:11;;;;;;;16.33;2.67;;;;;;;;;;4965603;28;20137;-70
2022/10/03 09:34:48;;;;;;;17.08;3.15;;;;;;;;;;5008780;28;20050;-71
2022/10/03 09:37:25;;;;;;;16.08;2.85;;;;;;;;;;5008761;28;20560;-70
2022/10/03 09:40:06;;;;;;;13.65;2.80;;;;;;;;;;5009263;28;20120;-69
2022/10/03 09:42:42;;;;;;;10.60;2.92;;;;;;;;;;5011081;28;20099;-71
2022/10/03 09:45:17;;;;;;;13.88;2.97;;;;;;;;;;5012585;28;20584;-67
2022/10/03 09:47:52;;;;;;;12.70;2.90;;;;;;;;;;5013855;28;20077;-71
2022/10/03 09:50:37;;;;;;;14.13;3.35;;;;;;;;;;5013027;28;20065;-71
2022/10/03 09:53:16;;;;;;;14.98;2.80;;;;;;;;;;5013567;28;20050;-72
2022/10/03 09:56:00;;;;;;;14.27;3.55;;;;;;;;;;5012819;28;20121;-69
2022/10/03 09:58:43;;;;;;;14.52;2.95;;;;;;;;;;5013402;28;20054;-70
2022/10/03 10:01:09;;;;;;;16.45;2.60;;;;;;;;;;5014417;28;20430;-69
2022/10/03 10:03:54;;;;;;;14.43;2.78;;;;;;;;;;5013582;28;20152;-70
2022/10/03 10:06:26;;;;;;;15.13;3.33;;;;;;;;;;5012258;28;20438;-70
2022/10/03 10:08:58;;;;;;;15.60;2.95;;;;;;;;;;4994895;28;20524;-68
2022/10/03 10:11:24;;;;;;;14.55;2.85;;;;;;;;;;5012529;28;20052;-69
2022/10/03 10:14:09;;;;;;;13.88;2.97;;;;;;;;;;5012589;28;20137;-70
2022/10/03 10:16:44;;;;;;;14.52;3.00;;;;;;;;;;5012262;28;20334;-70
2022/10/03 10:19:23;;;;;;;13.68;2.58;;;;;;;;;;5012277;28;20050;-70
2022/10/03 10:21:58;;;;;;;12.43;2.60;;;;;;;;;;5012223;28;20058;-70
2022/10/03 10:24:35;;;;;;;17.75;2.70;;;;;;;;;;5012340;28;20117;-71
2022/10/03 10:27:19;;;;;;;12.25;3.00;;;;;;;;;;5012304;28;20058;-70
2022/10/03 10:30:01;;;;;;;15.63;2.85;;;;;;;;;;5011997;28;20512;-70
2022/10/03 10:32:46;;;;;;;11.85;2.30;;;;;;;;;;5011952;28;20061;-69
2022/10/03 10:35:30;;;;;;;14.80;2.75;;;;;;;;;;5011694;28;20197;-70
2022/10/03 10:38:01;;;;;;;13.75;2.85;;;;;;;;;;5011862;28;20053;-65
2022/10/03 10:40:31;;;;;;;12.27;2.60;;;;;;;;;;5011450;28;20066;-68
2022/10/03 10:43:15;;;;;;;10.55;1.95;;;;;;;;;;5011620;28;20056;-69
2022/10/03 10:46:05;;;;;;;11.43;2.50;;;;;;;;;;5011420;28;20042;-70
2022/10/03 10:48:46;;;;;;;12.65;2.50;;;;;;;;;;5011482;28;20120;-69
2022/10/03 10:51:12;;;;;;;12.07;2.30;;;;;;;;;;5011392;28;20054;-69
2022/10/03 10:53:54;;;;;;;11.15;2.25;;;;;;;;;;5011478;28;20060;-69
2022/10/03 10:56:23;;;;;;;14.23;2.50;;;;;;;;;;5011549;28;20137;-71
2022/10/03 10:59:01;;;;;;;12.27;2.45;;;;;;;;;;5011404;28;20093;-68
2022/10/03 11:01:33;;;;;;;12.93;2.60;;;;;;;;;;5011316;28;20130;-69
2022/10/03 11:04:18;;;;;;;12.00;2.30;;;;;;;;;;5011446;28;20090;-69
2022/10/03 11:07:03;;;;;;;12.63;2.45;;;;;;;;;;5011237;28;20065;-70
2022/10/03 11:09:41;;;;;;;13.50;4.78;;;;;;;;;;4993319;28;20068;-69
2022/10/03 11:12:28;;;;;;;13.23;2.08;;;;;;;;;;5011293;28;20101;-67
2022/10/03 11:15:13;;;;;;;14.77;3.37;;;;;;;;;;5011045;28;20120;-68
2022/10/03 11:17:58;;;;;;;13.90;3.38;;;;;;;;;;5011302;28;20086;-68
2022/10/03 11:20:24;;;;;;;12.32;2.35;;;;;;;;;;5010901;28;20049;-66
2022/10/03 11:22:50;;;;;;;12.48;1.80;;;;;;;;;;4992828;28;20152;-69
2022/10/03 11:25:28;;;;;;;8.50;2.03;;;;;;;;;;5011012;28;20136;-71
2022/10/03 11:27:54;;;;;;;20.00;2.80;;;;;;;;;;5010814;28;20105;-69
2022/10/03 11:30:39;;;;;;;13.73;2.40;;;;;;;;;;5011052;28;20056;-71
2022/10/03 11:33:08;;;;;;;11.70;2.10;;;;;;;;;;5009762;28;20154;-71
2022/10/03 11:35:53;;;;;;;11.18;2.35;;;;;;;;;;5010967;28;20134;-72
2022/10/03 11:38:24;;;;;;;13.35;2.33;;;;;;;;;;5010986;28;20053;-72
2022/10/03 11:41:20;;;;;;;14.68;2.28;;;;;;;;;;5010237;28;20156;-70
2022/10/03 11:43:46;;;;;;;12.75;2.38;;;;;;;;;;4993369;28;20076;-71
2022/10/03 11:46:24;;;;;;;18.65;2.60;;;;;;;;;;5010653;28;20064;-70
2022/10/03 11:48:51;;;;;;;9.18;2.20;;;;;;;;;;5010824;28;20071;-70
2022/10/03 11:51:36;;;;;;;12.93;2.45;;;;;;;;;;5011119;28;20128;-70
2022/10/03 11:54:20;;;;;;;13.68;2.20;;;;;;;;;;5010627;28;20085;-71
2022/10/03 11:56:54;;;;;;;14.68;2.30;;;;;;;;;;5010797;28;20166;-69
2022/10/03 11:59:32;;;;;;;13.27;2.28;;;;;;;;;;5010618;28;20042;-72
2022/10/03 12:02:13;;;;;;;12.50;2.35;;;;;;;;;;5010582;28;20054;-72
2022/10/03 12:05:07;;;;;;;12.00;2.45;;;;;;;;;;4991756;28;20118;-67
2022/10/03 12:10:23;;;;;;;13.23;2.10;;;;;;;;;;5010115;28;20069;-69
2022/10/03 12:12:52;;;;;;;16.08;2.75;;;;;;;;;;5010067;28;20131;-69
2022/10/03 12:15:38;;;;;;;12.27;1.98;;;;;;;;;;4992189;28;20504;-70
2022/10/03 12:18:04;;;;;;;9.80;2.03;;;;;;;;;;5010257;28;20053;-72
2022/10/03 12:20:39;;;;;;;11.75;2.35;;;;;;;;;;5010061;28;20054;-67
2022/10/03 12:23:17;;;;;;;11.43;2.17;;;;;;;;;;4992211;28;20057;-68
2022/10/03 12:25:45;;;;;;;10.45;2.05;;;;;;;;;;5009732;28;20046;-66
2022/10/03 12:28:11;;;;;;;9.75;2.20;;;;;;;;;;5010003;28;20127;-68
2022/10/03 12:30:42;;;;;;;10.45;2.30;;;;;;;;;;5010079;28;20046;-67
2022/10/03 12:33:08;;;;;;;10.45;2.25;;;;;;;;;;5009847;28;20198;-67
2022/10/03 12:35:37;;;;;;;13.07;2.20;;;;;;;;;;5008874;28;20057;-68
2022/10/03 12:38:38;;;;;;;7.65;2.00;;;;;;;;;;5009696;28;20098;-68
2022/10/03 12:41:04;;;;;;;8.27;2.22;;;;;;;;;;4929570;29;20054;-68
2022/10/03 12:43:52;;;;;;;13.70;2.42;;;;;;;;;;4993367;28;20053;-67
2022/10/03 12:46:26;;;;;;;12.18;2.25;;;;;;;;;;5009639;28;20084;-68
2022/10/03 12:49:14;;;;;;;9.98;2.15;;;;;;;;;;5009401;28;20349;-68
2022/10/03 12:51:41;;;;;;;;;;;;;;;;;;5009480;28;20444;-67
2022/10/03 12:54:15;;;;;;;11.93;2.17;;;;;;;;;;5009562;28;20332;-68
2022/10/03 12:57:10;;;;;;;8.55;2.15;;;;;;;;;;5009759;28;20080;-69
2022/10/03 12:59:42;;;;;;;15.93;2.78;;;;;;;;;;4992588;28;20054;-66
2022/10/03 13:02:17;;;;;;;10.85;2.00;;;;;;;;;;5009425;28;20465;-67
2022/10/03 13:04:53;;;;;;;11.32;2.33;;;;;;;;;;5009165;28;20411;-68
2022/10/03 13:07:22;;;;;;;11.27;2.33;;;;;;;;;;5009564;28;20121;-69
2022/10/03 13:10:09;;;;;;;13.93;2.78;;;;;;;;;;5009543;28;20511;-68
2022/10/03 13:12:54;;;;;;;9.77;2.05;;;;;;;;;;5009084;28;20442;-67
2022/10/03 13:15:55;;;;;;;12.15;2.08;;;;;;;;;;5009231;28;20184;-69
2022/10/03 13:18:47;;;;;;;9.60;2.33;;;;;;;;;;4969307;28;20057;-69
2022/10/03 13:21:13;;;;;;;11.52;2.55;;;;;;;;;;4983189;28;20448;-69
2022/10/03 13:23:56;;;;;;;12.25;2.10;;;;;;;;;;5013385;28;20401;-70
2022/10/03 13:26:51;;;;;;;7.75;2.38;;;;;;;;;;5013406;28;20104;-70
2022/10/03 13:29:24;;;;;;;10.40;2.00;;;;;;;;;;4996070;28;20046;-69
2022/10/03 13:31:54;;;;;;;13.07;2.30;;;;;;;;;;5012926;28;20381;-69
2022/10/03 13:34:22;;;;;;;9.98;2.05;;;;;;;;;;5013279;28;20056;-71
2022/10/03 13:36:57;;;;;;;11.75;2.00;;;;;;;;;;5013059;28;20049;-71
2022/10/03 13:39:24;;;;;;;12.35;2.00;;;;;;;;;;4995480;28;20385;-71
2022/10/03 13:42:12;;;;;;;12.43;2.38;;;;;;;;;;5012790;28;20137;-69
2022/10/03 13:44:40;;;;;;;12.60;2.63;;;;;;;;;;5012895;28;20232;-68
2022/10/03 13:47:18;;;;;;;10.10;2.08;;;;;;;;;;5012732;28;20052;-70
2022/10/03 13:49:52;;;;;;;14.43;2.40;;;;;;;;;;5012752;28;20056;-69
2022/10/03 13:52:23;;;;;;;11.65;2.10;;;;;;;;;;4994690;28;20461;-69
2022/10/03 13:55:09;;;;;;;10.45;2.45;;;;;;;;;;5012974;28;20054;-70
2022/10/03 13:57:38;;;;;;;13.37;2.70;;;;;;;;;;5012877;28;20096;-70
2022/10/03 14:00:09;;;;;;;12.43;2.45;;;;;;;;;;5012525;28;20065;-70
2022/10/03 14:02:41;;;;;;;10.18;2.20;;;;;;;;;;5012713;28;20054;-69
2022/10/03 14:05:26;;;;;;;12.48;2.20;;;;;;;;;;5012079;28;20362;-68
2022/10/03 14:07:55;;;;;;;12.02;2.20;;;;;;;;;;5012338;28;20133;-68
2022/10/03 14:10:25;;;;;;;9.63;2.10;;;;;;;;;;5012092;28;20049;-69
2022/10/03 14:13:03;;;;;;;8.82;2.40;;;;;;;;;;5013009;28;20046;-70
2022/10/03 14:15:38;;;;;;;15.00;2.75;;;;;;;;;;5012432;28;20061;-69
2022/10/03 14:18:07;;;;;;;14.07;2.20;;;;;;;;;;5012078;28;20129;-69
2022/10/03 14:20:36;;;;;;;11.50;2.50;;;;;;;;;;5012460;28;20042;-69
2022/10/03 14:23:10;;;;;;;12.88;2.83;;;;;;;;;;5011948;28;20048;-69
2022/10/03 14:25:37;;;;;;;11.55;2.45;;;;;;;;;;5011572;28;20445;-69
2022/10/03 14:28:25;;;;;;;12.43;2.45;;;;;;;;;;4993719;28;20062;-70
2022/10/03 14:30:57;;;;;;;11.13;2.20;;;;;;;;;;5012087;28;20069;-69
2022/10/03 14:33:28;;;;;;;9.52;2.20;;;;;;;;;;4994475;28;20060;-71
2022/10/03 14:36:14;;;;;;;14.10;2.42;;;;;;;;;;5012200;28;20046;-70
2022/10/03 14:38:56;;;;;;;13.95;2.53;;;;;;;;;;4997516;28;20141;-69
2022/10/03 14:41:31;;;;;;;8.98;2.30;;;;;;;;;;5011962;28;20085;-69
2022/10/03 14:43:57;;;;;;;12.77;2.42;;;;;;;;;;5011917;28;20041;-69
2022/10/03 14:46:25;;;;;;;14.32;2.25;;;;;;;;;;5012094;28;20426;-69
2022/10/03 14:48:52;;;;;;;12.90;2.50;;;;;;;;;;5011817;28;20054;-69
2022/10/03 14:51:21;;;;;;;10.48;2.03;;;;;;;;;;5011867;28;20046;-69
2022/10/03 14:54:01;;;;;;;11.13;2.50;;;;;;;;;;5011826;28;20084;-70
2022/10/03 14:56:33;;;;;;;11.90;2.40;;;;;;;;;;5011322;28;20092;-69
2022/10/03 14:59:10;;;;;;;11.35;2.20;;;;;;;;;;5011692;28;20131;-68
2022/10/03 15:01:46;;;;;;;10.48;2.70;;;;;;;;;;5011487;28;20046;-68
2022/10/03 15:04:21;;;;;;;12.75;2.78;;;;;;;;;;5011628;28;20088;-69
2022/10/03 15:06:47;;;;;;;13.85;2.50;;;;;;;;;;5011574;28;20041;-68
2022/10/03 15:09:16;;;;;;;12.95;2.70;;;;;;;;;;5011477;28;20058;-69
2022/10/03 15:11:49;;;;;;;10.65;2.78;;;;;;;;;;5011607;28;20061;-69
2022/10/03 15:14:16;;;;;;;12.68;2.38;;;;;;;;;;5011053;28;20049;-69
2022/10/03 15:16:47;;;;;;;12.02;2.22;;;;;;;;;;5010731;28;20168;-69
2022/10/03 15:19:16;;;;;;;14.05;2.22;;;;;;;;;;5011009;28;20085;-69
2022/10/03 15:21:45;;;;;;;10.20;2.30;;;;;;;;;;4994032;28;20042;-68
2022/10/03 15:24:18;;;;;;;10.05;2.33;;;;;;;;;;5011254;28;20057;-70
2022/10/03 15:26:49;;;;;;;12.13;2.00;;;;;;;;;;5011349;28;20053;-70
2022/10/03 15:29:16;;;;;;;12.90;2.70;;;;;;;;;;5011822;28;20377;-70
2022/10/03 15:31:44;;;;;;;11.90;2.58;;;;;;;;;;5011483;28;20089;-70
2022/10/03 15:34:19;;;;;;;11.93;2.55;;;;;;;;;;5010943;28;20136;-70
2022/10/03 15:36:47;;;;;;;14.52;2.50;;;;;;;;;;5010688;28;20526;-70